sensor_id;sensor_type;location;lat;lon;timestamp;pressure;altitude;pressure_sealevel;temperature;humidity
27232;BME280;61835;50.196;6.454;2022-08-21T00:01:12;96622.03;;;16.65;100.00
27232;BME280;61835;50.196;6.454;2022-08-21T00:03:39;96624.56;;;16.67;100.00
27232;BME280;61835;50.196;6.454;2022-08-21T00:06:05;96627.19;;;16.59;100.00
27232;BME280;61835;50.196;6.454;2022-08-21T00:08:31;96634.38;;;16.58;100.00
27232;BME280;61835;50.196;6.454;2022-08-21T00:10:56;96622.53;;;16.43;100.00
27232;BME280;61835;50.196;6.454;2022-08-21T00:13:22;96621.31;;;16.38;100.00
27232;BME280;61835;50.196;6.454;2022-08-21T00:15:48;96628.75;;;16.26;100.00
27232;BME280;61835;50.196;6.454;2022-08-21T00:18:14;96633.97;;;16.10;100.00
27232;BME280;61835;50.196;6.454;2022-08-21T00:20:41;96626.00;;;16.00;100.00
27232;BME280;61835;50.196;6.454;2022-08-21T00:23:07;96624.16;;;16.01;100.00
27232;BME280;61835;50.196;6.454;2022-08-21T00:25:33;96624.78;;;16.12;100.00
27232;BME280;61835;50.196;6.454;2022-08-21T00:27:58;96619.06;;;16.07;100.00
27232;BME280;61835;50.196;6.454;2022-08-21T00:30:26;96623.72;;;16.05;100.00
27232;BME280;61835;50.196;6.454;2022-08-21T00:32:53;96619.66;;;15.84;100.00
27232;BME280;61835;50.196;6.454;2022-08-21T00:35:22;96622.09;;;15.77;100.00
27232;BME280;61835;50.196;6.454;2022-08-21T00:37:48;96616.31;;;15.82;100.00
27232;BME280;61835;50.196;6.454;2022-08-21T00:40:18;96619.53;;;15.68;100.00
27232;BME280;61835;50.196;6.454;2022-08-21T00:42:44;96623.41;;;15.55;100.00
27232;BME280;61835;50.196;6.454;2022-08-21T00:45:10;96615.81;;;15.51;100.00
27232;BME280;61835;50.196;6.454;2022-08-21T00:47:36;96621.91;;;15.43;100.00
27232;BME280;61835;50.196;6.454;2022-08-21T00:50:04;96620.47;;;15.49;100.00
27232;BME280;61835;50.196;6.454;2022-08-21T00:52:32;96613.81;;;15.53;100.00
27232;BME280;61835;50.196;6.454;2022-08-21T00:54:59;96612.16;;;15.52;100.00
27232;BME280;61835;50.196;6.454;2022-08-21T00:57:32;96618.50;;;15.51;100.00
27232;BME280;61835;50.196;6.454;2022-08-21T01:00:00;96615.69;;;15.43;100.00
27232;BME280;61835;50.196;6.454;2022-08-21T01:02:27;96610.97;;;15.37;100.00
27232;BME280;61835;50.196;6.454;2022-08-21T01:04:53;96615.53;;;15.44;100.00
27232;BME280;61835;50.196;6.454;2022-08-21T01:07:18;96611.19;;;15.43;100.00
27232;BME280;61835;50.196;6.454;2022-08-21T01:09:46;96611.78;;;15.47;100.00
27232;BME280;61835;50.196;6.454;2022-08-21T01:12:13;96606.44;;;15.47;100.00
27232;BME280;61835;50.196;6.454;2022-08-21T01:14:40;96600.41;;;15.35;100.00
27232;BME280;61835;50.196;6.454;2022-08-21T01:17:08;96606.59;;;15.36;100.00
27232;BME280;61835;50.196;6.454;2022-08-21T01:19:35;96596.81;;;15.44;100.00
27232;BME280;61835;50.196;6.454;2022-08-21T01:22:00;96610.72;;;15.30;100.00
27232;BME280;61835;50.196;6.454;2022-08-21T01:24:26;96602.91;;;15.19;100.00
27232;BME280;61835;50.196;6.454;2022-08-21T01:26:52;96602.50;;;15.14;100.00
27232;BME280;61835;50.196;6.454;2022-08-21T01:29:48;96594.66;;;15.30;100.00
27232;BME280;61835;50.196;6.454;2022-08-21T01:32:17;96605.97;;;15.24;100.00
27232;BME280;61835;50.196;6.454;2022-08-21T01:34:46;96601.75;;;15.22;100.00
27232;BME280;61835;50.196;6.454;2022-08-21T01:37:12;96606.50;;;15.28;100.00
27232;BME280;61835;50.196;6.454;2022-08-21T01:39:38;96605.81;;;15.26;100.00
27232;BME280;61835;50.196;6.454;2022-08-21T01:42:04;96600.69;;;15.32;100.00
27232;BME280;61835;50.196;6.454;2022-08-21T01:44:31;96600.00;;;15.30;100.00
27232;BME280;61835;50.196;6.454;2022-08-21T01:46:58;96601.66;;;15.14;100.00
27232;BME280;61835;50.196;6.454;2022-08-21T01:49:24;96601.50;;;15.15;100.00
27232;BME280;61835;50.196;6.454;2022-08-21T01:51:49;96606.16;;;15.13;100.00
27232;BME280;61835;50.196;6.454;2022-08-21T01:54:15;96598.19;;;15.03;100.00
27232;BME280;61835;50.196;6.454;2022-08-21T01:56:43;96602.69;;;15.03;100.00
27232;BME280;61835;50.196;6.454;2022-08-21T01:59:09;96597.00;;;15.16;100.00
27232;BME280;61835;50.196;6.454;2022-08-21T02:01:35;96593.13;;;15.00;100.00
27232;BME280;61835;50.196;6.454;2022-08-21T02:04:01;96595.97;;;14.99;100.00
27232;BME280;61835;50.196;6.454;2022-08-21T02:06:26;96596.88;;;14.80;100.00
27232;BME280;61835;50.196;6.454;2022-08-21T02:08:52;96591.34;;;14.91;100.00
27232;BME280;61835;50.196;6.454;2022-08-21T02:11:18;96581.84;;;14.79;100.00
27232;BME280;61835;50.196;6.454;2022-08-21T02:13:44;96590.69;;;14.80;100.00
27232;BME280;61835;50.196;6.454;2022-08-21T02:16:09;96589.75;;;14.71;100.00
27232;BME280;61835;50.196;6.454;2022-08-21T02:18:35;96586.66;;;14.76;100.00
27232;BME280;61835;50.196;6.454;2022-08-21T02:21:01;96585.72;;;14.67;100.00
27232;BME280;61835;50.196;6.454;2022-08-21T02:23:26;96590.63;;;14.62;100.00
27232;BME280;61835;50.196;6.454;2022-08-21T02:25:52;96586.88;;;14.55;100.00
27232;BME280;61835;50.196;6.454;2022-08-21T02:28:17;96586.31;;;14.51;100.00
27232;BME280;61835;50.196;6.454;2022-08-21T02:30:45;96587.00;;;14.53;100.00
27232;BME280;61835;50.196;6.454;2022-08-21T02:33:11;96599.66;;;14.51;100.00
27232;BME280;61835;50.196;6.454;2022-08-21T02:35:37;96596.88;;;14.43;100.00
27232;BME280;61835;50.196;6.454;2022-08-21T02:38:06;96585.75;;;14.48;100.00
27232;BME280;61835;50.196;6.454;2022-08-21T02:40:34;96580.44;;;14.48;100.00
27232;BME280;61835;50.196;6.454;2022-08-21T02:43:02;96572.59;;;14.46;100.00
27232;BME280;61835;50.196;6.454;2022-08-21T02:45:28;96583.53;;;14.43;100.00
27232;BME280;61835;50.196;6.454;2022-08-21T02:48:01;96583.84;;;14.40;100.00
27232;BME280;61835;50.196;6.454;2022-08-21T02:50:40;96584.91;;;14.47;100.00
27232;BME280;61835;50.196;6.454;2022-08-21T02:53:08;96579.88;;;14.44;100.00
27232;BME280;61835;50.196;6.454;2022-08-21T02:55:35;96581.44;;;14.37;100.00
27232;BME280;61835;50.196;6.454;2022-08-21T02:58:01;96583.84;;;14.40;100.00
27232;BME280;61835;50.196;6.454;2022-08-21T03:00:29;96586.78;;;14.37;100.00
27232;BME280;61835;50.196;6.454;2022-08-21T03:02:55;96586.78;;;14.37;100.00
27232;BME280;61835;50.196;6.454;2022-08-21T03:05:22;96584.13;;;14.37;100.00
27232;BME280;61835;50.196;6.454;2022-08-21T03:07:48;96591.00;;;14.40;100.00
27232;BME280;61835;50.196;6.454;2022-08-21T03:10:15;96580.59;;;14.37;100.00
27232;BME280;61835;50.196;6.454;2022-08-21T03:12:41;96580.47;;;14.29;100.00
27232;BME280;61835;50.196;6.454;2022-08-21T03:15:09;96584.94;;;14.28;100.00
27232;BME280;61835;50.196;6.454;2022-08-21T03:17:36;96582.13;;;14.30;100.00
27232;BME280;61835;50.196;6.454;2022-08-21T03:20:04;96575.56;;;14.34;100.00
27232;BME280;61835;50.196;6.454;2022-08-21T03:22:30;96580.59;;;14.37;100.00
27232;BME280;61835;50.196;6.454;2022-08-21T03:24:55;96583.41;;;14.35;100.00
27232;BME280;61835;50.196;6.454;2022-08-21T03:27:22;96576.50;;;14.42;100.00
27232;BME280;61835;50.196;6.454;2022-08-21T03:29:47;96575.38;;;14.45;100.00
27232;BME280;61835;50.196;6.454;2022-08-21T03:32:13;96579.28;;;14.50;100.00
27232;BME280;61835;50.196;6.454;2022-08-21T03:34:38;96571.28;;;14.50;100.00
27232;BME280;61835;50.196;6.454;2022-08-21T03:37:06;96578.72;;;14.47;100.00
27232;BME280;61835;50.196;6.454;2022-08-21T03:39:33;96585.78;;;14.38;100.00
27232;BME280;61835;50.196;6.454;2022-08-21T03:41:59;96582.72;;;14.33;100.00
27232;BME280;61835;50.196;6.454;2022-08-21T03:44:25;96578.47;;;14.31;100.00
27232;BME280;61835;50.196;6.454;2022-08-21T03:46:54;96572.59;;;14.27;100.00
27232;BME280;61835;50.196;6.454;2022-08-21T03:49:20;96573.31;;;14.10;100.00
27232;BME280;61835;50.196;6.454;2022-08-21T03:51:46;96570.94;;;14.17;100.00
27232;BME280;61835;50.196;6.454;2022-08-21T03:54:11;96573.31;;;14.10;100.00
27232;BME280;61835;50.196;6.454;2022-08-21T03:56:36;96575.56;;;14.15;100.00
27232;BME280;61835;50.196;6.454;2022-08-21T03:59:02;96584.97;;;14.09;100.00
27232;BME280;61835;50.196;6.454;2022-08-21T04:01:28;96592.84;;;14.11;100.00
27232;BME280;61835;50.196;6.454;2022-08-21T04:03:54;96590.88;;;14.13;100.00
27232;BME280;61835;50.196;6.454;2022-08-21T04:06:19;96584.97;;;14.09;100.00
27232;BME280;61835;50.196;6.454;2022-08-21T04:08:44;96586.25;;;14.05;100.00
27232;BME280;61835;50.196;6.454;2022-08-21T04:11:10;96598.19;;;14.01;100.00
27232;BME280;61835;50.196;6.454;2022-08-21T04:13:36;96607.44;;;13.97;100.00
27232;BME280;61835;50.196;6.454;2022-08-21T04:16:02;96601.53;;;14.03;100.00
27232;BME280;61835;50.196;6.454;2022-08-21T04:18:27;96603.13;;;13.96;100.00
27232;BME280;61835;50.196;6.454;2022-08-21T04:20:54;96606.19;;;13.91;100.00
27232;BME280;61835;50.196;6.454;2022-08-21T04:23:21;96604.38;;;13.92;100.00
27232;BME280;61835;50.196;6.454;2022-08-21T04:25:47;96597.06;;;13.94;100.00
27232;BME280;61835;50.196;6.454;2022-08-21T04:28:12;96599.19;;;13.90;100.00
27232;BME280;61835;50.196;6.454;2022-08-21T04:30:37;96607.03;;;13.92;100.00
27232;BME280;61835;50.196;6.454;2022-08-21T04:33:03;96602.66;;;13.91;100.00
27232;BME280;61835;50.196;6.454;2022-08-21T04:35:29;96598.34;;;13.90;100.00
27232;BME280;61835;50.196;6.454;2022-08-21T04:37:55;96599.03;;;13.92;100.00
27232;BME280;61835;50.196;6.454;2022-08-21T04:40:22;96599.03;;;14.02;100.00
27232;BME280;61835;50.196;6.454;2022-08-21T04:42:52;96598.47;;;13.98;100.00
27232;BME280;61835;50.196;6.454;2022-08-21T04:45:22;96603.53;;;14.01;100.00
27232;BME280;61835;50.196;6.454;2022-08-21T04:47:50;96602.38;;;14.04;100.00
27232;BME280;61835;50.196;6.454;2022-08-21T04:50:16;96607.88;;;14.02;100.00
27232;BME280;61835;50.196;6.454;2022-08-21T04:53:02;96608.72;;;13.93;100.00
27232;BME280;61835;50.196;6.454;2022-08-21T04:55:28;96614.63;;;13.87;100.00
27232;BME280;61835;50.196;6.454;2022-08-21T04:57:55;96611.69;;;13.90;100.00
27232;BME280;61835;50.196;6.454;2022-08-21T05:00:23;96613.06;;;13.94;100.00
27232;BME280;61835;50.196;6.454;2022-08-21T05:02:51;96621.22;;;13.83;100.00
27232;BME280;61835;50.196;6.454;2022-08-21T05:05:21;96625.13;;;13.88;100.00
27232;BME280;61835;50.196;6.454;2022-08-21T05:07:47;96617.00;;;13.90;100.00
27232;BME280;61835;50.196;6.454;2022-08-21T05:10:14;96615.72;;;13.94;100.00
27232;BME280;61835;50.196;6.454;2022-08-21T05:12:40;96617.25;;;13.96;100.00
27232;BME280;61835;50.196;6.454;2022-08-21T05:15:07;96619.94;;;13.96;100.00
27232;BME280;61835;50.196;6.454;2022-08-21T05:17:32;96618.97;;;14.07;100.00
27232;BME280;61835;50.196;6.454;2022-08-21T05:19:58;96606.44;;;14.17;100.00
27232;BME280;61835;50.196;6.454;2022-08-21T05:22:24;96616.13;;;14.18;100.00
27232;BME280;61835;50.196;6.454;2022-08-21T05:24:50;96612.78;;;14.26;100.00
27232;BME280;61835;50.196;6.454;2022-08-21T05:27:16;96612.91;;;14.34;100.00
27232;BME280;61835;50.196;6.454;2022-08-21T05:29:42;96611.78;;;14.36;100.00
27232;BME280;61835;50.196;6.454;2022-08-21T05:32:12;96604.59;;;14.46;100.00
27232;BME280;61835;50.196;6.454;2022-08-21T05:34:38;96608.53;;;14.42;100.00
27232;BME280;61835;50.196;6.454;2022-08-21T05:37:04;96609.94;;;14.46;100.00
27232;BME280;61835;50.196;6.454;2022-08-21T05:39:30;96612.84;;;14.53;100.00
27232;BME280;61835;50.196;6.454;2022-08-21T05:41:55;96601.75;;;14.58;100.00
27232;BME280;61835;50.196;6.454;2022-08-21T05:44:20;96608.59;;;14.70;100.00
27232;BME280;61835;50.196;6.454;2022-08-21T05:46:46;96609.28;;;14.72;100.00
27232;BME280;61835;50.196;6.454;2022-08-21T05:49:11;96609.28;;;14.81;100.00
27232;BME280;61835;50.196;6.454;2022-08-21T05:51:40;96609.22;;;14.91;100.00
27232;BME280;61835;50.196;6.454;2022-08-21T05:54:05;96604.25;;;15.05;100.00
27232;BME280;61835;50.196;6.454;2022-08-21T05:56:31;96603.50;;;15.13;100.00
27232;BME280;61835;50.196;6.454;2022-08-21T05:58:56;96600.00;;;15.30;100.00
27232;BME280;61835;50.196;6.454;2022-08-21T06:01:22;96598.13;;;15.40;100.00
27232;BME280;61835;50.196;6.454;2022-08-21T06:03:47;96598.31;;;15.56;100.00
27232;BME280;61835;50.196;6.454;2022-08-21T06:06:13;96597.88;;;15.61;100.00
27232;BME280;61835;50.196;6.454;2022-08-21T06:08:38;96602.41;;;15.78;100.00
27232;BME280;61835;50.196;6.454;2022-08-21T06:11:05;96599.19;;;15.92;100.00
27232;BME280;61835;50.196;6.454;2022-08-21T06:13:31;96593.75;;;16.02;100.00
27232;BME280;61835;50.196;6.454;2022-08-21T06:16:09;96592.16;;;16.09;100.00
27232;BME280;61835;50.196;6.454;2022-08-21T06:18:36;96603.50;;;16.29;100.00
27232;BME280;61835;50.196;6.454;2022-08-21T06:21:02;96596.72;;;16.60;100.00
27232;BME280;61835;50.196;6.454;2022-08-21T06:23:28;96599.00;;;16.81;100.00
27232;BME280;61835;50.196;6.454;2022-08-21T06:25:53;96587.03;;;16.93;100.00
27232;BME280;61835;50.196;6.454;2022-08-21T06:28:19;96588.84;;;17.26;100.00
27232;BME280;61835;50.196;6.454;2022-08-21T06:30:44;96583.59;;;17.58;100.00
27232;BME280;61835;50.196;6.454;2022-08-21T06:33:09;96580.59;;;17.77;100.00
27232;BME280;61835;50.196;6.454;2022-08-21T06:35:35;96581.66;;;18.01;100.00
27232;BME280;61835;50.196;6.454;2022-08-21T06:38:00;96582.31;;;18.19;100.00
27232;BME280;61835;50.196;6.454;2022-08-21T06:40:27;96585.31;;;18.48;100.00
27232;BME280;61835;50.196;6.454;2022-08-21T06:42:53;96584.81;;;18.77;100.00
27232;BME280;61835;50.196;6.454;2022-08-21T06:45:19;96572.81;;;19.04;100.00
27232;BME280;61835;50.196;6.454;2022-08-21T06:47:45;96575.00;;;19.31;100.00
27232;BME280;61835;50.196;6.454;2022-08-21T06:50:10;96563.16;;;19.56;100.00
27232;BME280;61835;50.196;6.454;2022-08-21T06:52:36;96563.41;;;19.69;100.00
27232;BME280;61835;50.196;6.454;2022-08-21T06:55:04;96560.19;;;19.96;100.00
27232;BME280;61835;50.196;6.454;2022-08-21T06:57:30;96559.31;;;20.27;100.00
27232;BME280;61835;50.196;6.454;2022-08-21T06:59:55;96558.69;;;20.39;100.00
27232;BME280;61835;50.196;6.454;2022-08-21T07:02:21;96562.25;;;20.54;100.00
27232;BME280;61835;50.196;6.454;2022-08-21T07:04:46;96552.72;;;20.96;100.00
27232;BME280;61835;50.196;6.454;2022-08-21T07:07:12;96551.03;;;20.95;100.00
27232;BME280;61835;50.196;6.454;2022-08-21T07:09:37;96553.94;;;21.23;100.00
27232;BME280;61835;50.196;6.454;2022-08-21T07:12:03;96556.72;;;21.65;100.00
27232;BME280;61835;50.196;6.454;2022-08-21T07:14:28;96551.66;;;21.91;100.00
27232;BME280;61835;50.196;6.454;2022-08-21T07:16:54;96549.56;;;22.14;100.00
27232;BME280;61835;50.196;6.454;2022-08-21T07:19:19;96551.44;;;22.35;100.00
27232;BME280;61835;50.196;6.454;2022-08-21T07:21:45;96550.91;;;22.46;100.00
27232;BME280;61835;50.196;6.454;2022-08-21T07:24:10;96552.41;;;22.49;100.00
27232;BME280;61835;50.196;6.454;2022-08-21T07:26:36;96563.44;;;22.75;100.00
27232;BME280;61835;50.196;6.454;2022-08-21T07:29:01;96558.09;;;22.88;100.00
27232;BME280;61835;50.196;6.454;2022-08-21T07:31:27;96553.28;;;23.18;100.00
27232;BME280;61835;50.196;6.454;2022-08-21T07:33:53;96558.81;;;23.38;100.00
27232;BME280;61835;50.196;6.454;2022-08-21T07:36:19;96553.16;;;23.73;100.00
27232;BME280;61835;50.196;6.454;2022-08-21T07:38:45;96546.72;;;23.81;100.00
27232;BME280;61835;50.196;6.454;2022-08-21T07:41:17;96556.16;;;24.05;100.00
27232;BME280;61835;50.196;6.454;2022-08-21T07:43:44;96553.09;;;24.34;100.00
27232;BME280;61835;50.196;6.454;2022-08-21T07:46:10;96548.09;;;24.37;100.00
27232;BME280;61835;50.196;6.454;2022-08-21T07:48:36;96546.84;;;24.53;100.00
27232;BME280;61835;50.196;6.454;2022-08-21T07:51:06;96547.88;;;24.59;100.00
27232;BME280;61835;50.196;6.454;2022-08-21T07:53:31;96554.13;;;24.20;93.52
27232;BME280;61835;50.196;6.454;2022-08-21T07:55:58;96557.88;;;24.45;98.58
27232;BME280;61835;50.196;6.454;2022-08-21T07:58:23;96556.22;;;24.31;97.65
27232;BME280;61835;50.196;6.454;2022-08-21T08:00:49;96556.88;;;24.59;92.92
27232;BME280;61835;50.196;6.454;2022-08-21T08:03:14;96561.25;;;24.47;92.10
27232;BME280;61835;50.196;6.454;2022-08-21T08:05:40;96568.09;;;24.36;95.64
27232;BME280;61835;50.196;6.454;2022-08-21T08:08:05;96568.97;;;24.70;91.51
27232;BME280;61835;50.196;6.454;2022-08-21T08:10:31;96568.75;;;24.52;91.99
27232;BME280;61835;50.196;6.454;2022-08-21T08:12:56;96559.34;;;24.61;88.19
27232;BME280;61835;50.196;6.454;2022-08-21T08:15:24;96566.88;;;24.32;91.80
27232;BME280;61835;50.196;6.454;2022-08-21T08:17:51;96564.34;;;24.57;87.84
27232;BME280;61835;50.196;6.454;2022-08-21T08:20:17;96551.66;;;24.84;85.27
27232;BME280;61835;50.196;6.454;2022-08-21T08:22:44;96551.22;;;24.93;82.21
27232;BME280;61835;50.196;6.454;2022-08-21T08:25:11;96548.97;;;25.55;76.79
27232;BME280;61835;50.196;6.454;2022-08-21T08:27:37;96548.63;;;25.25;81.58
27232;BME280;61835;50.196;6.454;2022-08-21T08:30:05;96540.34;;;25.00;77.62
27232;BME280;61835;50.196;6.454;2022-08-21T08:32:30;96544.19;;;25.43;76.13
27232;BME280;61835;50.196;6.454;2022-08-21T08:34:56;96544.25;;;25.24;76.35
27232;BME280;61835;50.196;6.454;2022-08-21T08:37:21;96547.94;;;25.42;76.56
27232;BME280;61835;50.196;6.454;2022-08-21T08:39:47;96544.88;;;25.19;80.13
27232;BME280;61835;50.196;6.454;2022-08-21T08:42:25;96548.38;;;25.39;80.14
27232;BME280;61835;50.196;6.454;2022-08-21T08:44:58;96533.44;;;25.04;86.45
27232;BME280;61835;50.196;6.454;2022-08-21T08:47:25;96538.59;;;25.32;82.33
27232;BME280;61835;50.196;6.454;2022-08-21T08:52:40;96534.03;;;25.77;76.77
27232;BME280;61835;50.196;6.454;2022-08-21T08:55:18;96526.75;;;26.15;73.96
27232;BME280;61835;50.196;6.454;2022-08-21T08:57:46;96523.88;;;26.59;70.81
27232;BME280;61835;50.196;6.454;2022-08-21T09:00:14;96531.81;;;26.86;69.84
27232;BME280;61835;50.196;6.454;2022-08-21T09:02:42;96514.25;;;27.25;67.79
27232;BME280;61835;50.196;6.454;2022-08-21T09:05:19;96518.09;;;27.35;63.58
27232;BME280;61835;50.196;6.454;2022-08-21T09:10:41;96520.03;;;26.92;66.06
27232;BME280;61835;50.196;6.454;2022-08-21T09:13:20;96515.19;;;26.94;69.07
27232;BME280;61835;50.196;6.454;2022-08-21T09:15:52;96521.13;;;27.09;61.97
27232;BME280;61835;50.196;6.454;2022-08-21T09:21:06;96517.88;;;27.19;63.68
27232;BME280;61835;50.196;6.454;2022-08-21T09:23:49;96513.69;;;27.34;61.06
27232;BME280;61835;50.196;6.454;2022-08-21T09:26:24;96512.28;;;27.98;61.14
27232;BME280;61835;50.196;6.454;2022-08-21T09:28:56;96516.88;;;27.97;59.30
27232;BME280;61835;50.196;6.454;2022-08-21T09:31:31;96509.16;;;27.64;59.55
27232;BME280;61835;50.196;6.454;2022-08-21T09:33:59;96510.09;;;27.22;63.64
27232;BME280;61835;50.196;6.454;2022-08-21T09:36:33;96506.91;;;27.91;59.47
27232;BME280;61835;50.196;6.454;2022-08-21T09:38:59;96506.00;;;28.27;57.31
27232;BME280;61835;50.196;6.454;2022-08-21T09:41:33;96508.19;;;28.07;58.47
27232;BME280;61835;50.196;6.454;2022-08-21T09:44:01;96509.72;;;27.85;55.78
27232;BME280;61835;50.196;6.454;2022-08-21T09:46:27;96510.91;;;27.23;53.79
27232;BME280;61835;50.196;6.454;2022-08-21T09:48:59;96508.53;;;27.81;54.20
27232;BME280;61835;50.196;6.454;2022-08-21T09:51:33;96511.50;;;28.09;54.52
27232;BME280;61835;50.196;6.454;2022-08-21T09:56:34;96502.31;;;28.03;51.81
27232;BME280;61835;50.196;6.454;2022-08-21T09:59:29;96497.19;;;28.66;51.17
27232;BME280;61835;50.196;6.454;2022-08-21T10:01:58;96492.16;;;28.63;50.54
27232;BME280;61835;50.196;6.454;2022-08-21T10:04:32;96493.13;;;28.92;49.39
27232;BME280;61835;50.196;6.454;2022-08-21T10:07:13;96492.97;;;28.52;49.45
27232;BME280;61835;50.196;6.454;2022-08-21T10:09:40;96485.97;;;28.56;50.70
27232;BME280;61835;50.196;6.454;2022-08-21T10:15:20;96473.44;;;29.02;47.65
27232;BME280;61835;50.196;6.454;2022-08-21T10:26:04;96458.75;;;29.43;46.46
27232;BME280;61835;50.196;6.454;2022-08-21T10:28:42;96464.28;;;30.16;47.14
27232;BME280;61835;50.196;6.454;2022-08-21T10:31:41;96466.75;;;30.01;45.08
27232;BME280;61835;50.196;6.454;2022-08-21T10:34:26;96477.91;;;30.77;44.38
27232;BME280;61835;50.196;6.454;2022-08-21T10:37:16;96472.13;;;30.40;43.91
27232;BME280;61835;50.196;6.454;2022-08-21T10:46:04;96456.34;;;30.81;42.83
27232;BME280;61835;50.196;6.454;2022-08-21T10:48:54;96465.50;;;31.68;42.35
27232;BME280;61835;50.196;6.454;2022-08-21T10:51:54;96464.09;;;31.22;43.51
27232;BME280;61835;50.196;6.454;2022-08-21T10:54:35;96455.97;;;31.97;40.91
27232;BME280;61835;50.196;6.454;2022-08-21T10:57:16;96452.88;;;32.16;40.27
27232;BME280;61835;50.196;6.454;2022-08-21T10:59:53;96452.63;;;33.28;39.58
27232;BME280;61835;50.196;6.454;2022-08-21T11:02:38;96447.66;;;33.20;38.66
27232;BME280;61835;50.196;6.454;2022-08-21T11:05:12;96439.16;;;33.98;38.19
27232;BME280;61835;50.196;6.454;2022-08-21T11:07:53;96451.34;;;33.45;37.97
27232;BME280;61835;50.196;6.454;2022-08-21T11:10:39;96447.84;;;33.60;38.67
27232;BME280;61835;50.196;6.454;2022-08-21T11:13:40;96460.41;;;32.57;38.55
27232;BME280;61835;50.196;6.454;2022-08-21T11:16:33;96450.19;;;32.52;39.94
27232;BME280;61835;50.196;6.454;2022-08-21T11:19:13;96443.09;;;32.93;38.92
27232;BME280;61835;50.196;6.454;2022-08-21T11:21:53;96434.88;;;33.50;39.13
27232;BME280;61835;50.196;6.454;2022-08-21T11:24:38;96443.09;;;34.78;36.09
27232;BME280;61835;50.196;6.454;2022-08-21T11:27:08;96438.59;;;35.43;34.16
27232;BME280;61835;50.196;6.454;2022-08-21T11:29:38;96434.06;;;35.67;35.27
27232;BME280;61835;50.196;6.454;2022-08-21T11:37:43;96437.53;;;36.75;32.97
27232;BME280;61835;50.196;6.454;2022-08-21T11:45:55;96441.75;;;34.30;36.92
27232;BME280;61835;50.196;6.454;2022-08-21T11:51:13;96432.88;;;34.99;35.74
27232;BME280;61835;50.196;6.454;2022-08-21T11:53:51;96428.59;;;33.60;37.20
27232;BME280;61835;50.196;6.454;2022-08-21T11:56:30;96445.97;;;32.13;40.01
27232;BME280;61835;50.196;6.454;2022-08-21T11:59:03;96434.38;;;32.33;39.02
27232;BME280;61835;50.196;6.454;2022-08-21T12:01:37;96442.41;;;32.13;38.55
27232;BME280;61835;50.196;6.454;2022-08-21T12:04:18;96438.81;;;32.39;38.51
27232;BME280;61835;50.196;6.454;2022-08-21T12:06:44;96423.53;;;34.49;34.84
27232;BME280;61835;50.196;6.454;2022-08-21T12:09:33;96427.16;;;33.47;37.28
27232;BME280;61835;50.196;6.454;2022-08-21T12:15:15;96426.81;;;33.34;36.85
27232;BME280;61835;50.196;6.454;2022-08-21T12:28:28;96410.66;;;33.47;36.36
27232;BME280;61835;50.196;6.454;2022-08-21T12:30:54;96416.56;;;33.19;36.76
27232;BME280;61835;50.196;6.454;2022-08-21T12:33:36;96422.44;;;31.04;39.19
27232;BME280;61835;50.196;6.454;2022-08-21T12:36:12;96422.28;;;30.55;39.18
27232;BME280;61835;50.196;6.454;2022-08-21T12:38:47;96415.19;;;31.36;38.42
27232;BME280;61835;50.196;6.454;2022-08-21T12:41:20;96402.22;;;33.69;34.14
27232;BME280;61835;50.196;6.454;2022-08-21T12:43:51;96413.03;;;32.77;35.63
27232;BME280;61835;50.196;6.454;2022-08-21T12:46:31;96412.69;;;32.04;36.77
27232;BME280;61835;50.196;6.454;2022-08-21T12:49:08;96413.53;;;31.83;37.62
27232;BME280;61835;50.196;6.454;2022-08-21T12:52:03;96402.34;;;34.50;32.99
27232;BME280;61835;50.196;6.454;2022-08-21T12:54:39;96410.81;;;33.21;35.66
27232;BME280;61835;50.196;6.454;2022-08-21T12:57:06;96405.91;;;34.50;33.81
27232;BME280;61835;50.196;6.454;2022-08-21T12:59:36;96399.22;;;35.07;32.91
27232;BME280;61835;50.196;6.454;2022-08-21T13:02:05;96397.81;;;35.24;33.51
27232;BME280;61835;50.196;6.454;2022-08-21T13:04:38;96396.63;;;35.46;32.27
27232;BME280;61835;50.196;6.454;2022-08-21T13:07:11;96396.34;;;36.06;31.57
27232;BME280;61835;50.196;6.454;2022-08-21T13:09:54;96401.72;;;35.08;32.42
27232;BME280;61835;50.196;6.454;2022-08-21T13:12:21;96392.38;;;34.89;33.44
27232;BME280;61835;50.196;6.454;2022-08-21T13:14:49;96387.97;;;34.88;31.80
27232;BME280;61835;50.196;6.454;2022-08-21T13:17:18;96385.13;;;35.82;31.29
27232;BME280;61835;50.196;6.454;2022-08-21T13:20:40;96388.19;;;35.07;31.54
27232;BME280;61835;50.196;6.454;2022-08-21T13:22:43;96391.28;;;33.99;33.21
27232;BME280;61835;50.196;6.454;2022-08-21T13:25:14;96389.88;;;33.77;32.61
27232;BME280;61835;50.196;6.454;2022-08-21T13:27:43;96381.41;;;34.24;32.70
27232;BME280;61835;50.196;6.454;2022-08-21T13:30:19;96379.97;;;33.86;33.03
27232;BME280;61835;50.196;6.454;2022-08-21T13:32:50;96372.31;;;34.68;32.51
27232;BME280;61835;50.196;6.454;2022-08-21T13:38:14;96374.41;;;35.81;32.42
27232;BME280;61835;50.196;6.454;2022-08-21T13:40:47;96383.53;;;33.76;32.96
27232;BME280;61835;50.196;6.454;2022-08-21T13:43:17;96384.06;;;33.68;33.89
27232;BME280;61835;50.196;6.454;2022-08-21T13:45:48;96383.97;;;32.86;34.57
27232;BME280;61835;50.196;6.454;2022-08-21T13:48:13;96374.72;;;33.07;34.74
27232;BME280;61835;50.196;6.454;2022-08-21T13:50:40;96374.91;;;32.95;34.19
27232;BME280;61835;50.196;6.454;2022-08-21T13:53:21;96375.63;;;33.18;33.22
27232;BME280;61835;50.196;6.454;2022-08-21T13:55:48;96364.69;;;33.33;32.85
27232;BME280;61835;50.196;6.454;2022-08-21T13:58:34;96373.44;;;32.78;34.60
27232;BME280;61835;50.196;6.454;2022-08-21T14:01:23;96373.16;;;32.37;34.88
27232;BME280;61835;50.196;6.454;2022-08-21T14:03:52;96377.44;;;31.91;35.56
27232;BME280;61835;50.196;6.454;2022-08-21T14:06:21;96371.66;;;31.93;35.31